Time;durP1;ratioP1;P1;durP2;ratioP2;P2;SDS_P1;SDS_P2;PMS_P1;PMS_P2;Temp;Humidity;BMP_temperature;BMP_pressure;BME280_temperature;BME280_humidity;BME280_pressure;Samples;Min_cycle;Max_cycle;Signal;HPM_P1;HPM_P2
2022/04/06 00:02:17;;;;;;;12.13;5.17;;;11.10;99.90;;;;;;5073601;28;20479;-70
2022/04/06 00:04:45;;;;;;;12.30;5.33;;;11.00;99.90;;;;;;5074376;28;20449;-70
2022/04/06 00:07:12;;;;;;;13.10;5.80;;;11.00;99.90;;;;;;5074304;28;20445;-70
2022/04/06 00:09:39;;;;;;;8.97;5.80;;;11.00;99.90;;;;;;5073937;28;21019;-69
2022/04/06 00:12:08;;;;;;;11.47;5.60;;;11.00;99.90;;;;;;5074033;28;20488;-69
2022/04/06 00:14:34;;;;;;;7.23;5.47;;;11.00;99.90;;;;;;5074193;28;20487;-69
2022/04/06 00:17:05;;;;;;;9.80;5.20;;;11.00;99.90;;;;;;5074085;28;20452;-69
2022/04/06 00:19:32;;;;;;;8.97;5.30;;;11.00;99.90;;;;;;5074078;28;20467;-70
2022/04/06 00:22:00;;;;;;;12.00;6.53;;;11.10;99.90;;;;;;5073557;28;21006;-69
2022/04/06 00:24:27;;;;;;;17.57;6.50;;;11.00;99.90;;;;;;5073620;28;20456;-70
2022/04/06 00:26:54;;;;;;;10.60;5.40;;;11.00;99.90;;;;;;5073893;28;20453;-70
2022/04/06 00:29:21;;;;;;;9.37;6.30;;;10.90;99.90;;;;;;5073998;28;20457;-69
2022/04/06 00:31:48;;;;;;;11.57;5.93;;;10.90;99.90;;;;;;5073617;28;20488;-70
2022/04/06 00:34:14;;;;;;;11.77;6.40;;;10.90;99.90;;;;;;5073765;28;20460;-70
2022/04/06 00:36:41;;;;;;;11.53;5.87;;;10.90;99.90;;;;;;5073700;28;20448;-69
2022/04/06 00:39:09;;;;;;;10.37;5.63;;;10.90;99.90;;;;;;5073785;28;20452;-70
2022/04/06 00:41:38;;;;;;;9.83;5.30;;;10.90;99.90;;;;;;5073556;28;20469;-70
2022/04/06 00:44:14;;;;;;;7.70;4.53;;;10.90;99.90;;;;;;5073577;28;20448;-69
2022/04/06 00:46:41;;;;;;;10.10;4.73;;;10.90;99.90;;;;;;5073544;28;20444;-69
2022/04/06 00:49:14;;;;;;;14.63;6.00;;;10.90;99.90;;;;;;5073636;28;20449;-70
2022/04/06 00:51:43;;;;;;;6.43;4.80;;;10.90;99.90;;;;;;5073337;28;20492;-70
2022/04/06 00:54:13;;;;;;;10.47;4.50;;;10.80;99.90;;;;;;5073376;28;20441;-69
2022/04/06 00:56:41;;;;;;;11.40;5.37;;;10.80;99.90;;;;;;5073449;28;20436;-70
2022/04/06 00:59:09;;;;;;;9.23;4.90;;;10.80;99.90;;;;;;5073366;28;20487;-70
2022/04/06 01:01:36;;;;;;;9.80;4.50;;;10.80;99.90;;;;;;5073400;28;20475;-69
2022/04/06 01:04:03;;;;;;;10.77;4.17;;;10.80;99.90;;;;;;5073311;28;20460;-69
2022/04/06 01:06:30;;;;;;;8.93;5.07;;;10.80;99.90;;;;;;5073405;28;20455;-69
2022/04/06 01:08:58;;;;;;;17.60;4.67;;;10.80;99.90;;;;;;5072930;28;20948;-69
2022/04/06 01:11:26;;;;;;;11.90;4.90;;;10.80;99.90;;;;;;5073247;28;20491;-69
2022/04/06 01:13:54;;;;;;;6.90;3.83;;;10.80;99.90;;;;;;5073291;28;20452;-69
2022/04/06 01:16:21;;;;;;;6.53;3.87;;;10.80;99.90;;;;;;5072964;28;20796;-69
2022/04/06 01:18:47;;;;;;;9.10;4.13;;;10.80;99.90;;;;;;5072913;28;20457;-70
2022/04/06 01:21:15;;;;;;;11.47;4.73;;;10.80;99.90;;;;;;5072881;28;21002;-69
2022/04/06 01:23:44;;;;;;;12.67;4.40;;;10.80;99.90;;;;;;5073202;28;20444;-69
2022/04/06 01:26:11;;;;;;;10.30;3.93;;;10.80;99.90;;;;;;5073186;28;20456;-69
2022/04/06 01:28:39;;;;;;;10.97;4.20;;;10.80;99.90;;;;;;5073155;28;20475;-69
2022/04/06 01:31:06;;;;;;;7.73;3.60;;;10.80;99.90;;;;;;5073117;28;20496;-69
2022/04/06 01:33:33;;;;;;;5.60;3.30;;;10.80;99.90;;;;;;5072818;28;20861;-69
2022/04/06 01:36:01;;;;;;;6.83;3.63;;;10.80;99.90;;;;;;5072919;28;20445;-70
2022/04/06 01:38:28;;;;;;;7.43;3.87;;;10.70;99.90;;;;;;5073146;28;20453;-70
2022/04/06 01:40:56;;;;;;;8.50;3.90;;;10.80;99.90;;;;;;5072689;28;21005;-70
2022/04/06 01:43:23;;;;;;;6.30;3.67;;;10.80;99.90;;;;;;5072759;28;20452;-68
2022/04/06 01:45:50;;;;;;;11.00;3.47;;;10.80;99.90;;;;;;5072917;28;20449;-70
2022/04/06 01:48:18;;;;;;;10.60;3.80;;;10.80;99.90;;;;;;5073073;28;20453;-69
2022/04/06 01:53:30;;;;;;;6.50;3.73;;;10.80;99.90;;;;;;5073152;28;20404;-69
2022/04/06 01:55:58;;;;;;;7.83;3.80;;;10.80;99.90;;;;;;5072633;28;20443;-68
2022/04/06 01:58:25;;;;;;;9.80;3.90;;;10.70;99.90;;;;;;5072930;28;20447;-69
2022/04/06 02:00:54;;;;;;;13.83;3.83;;;10.80;99.90;;;;;;5072915;28;20471;-69
2022/04/06 02:03:21;;;;;;;8.90;3.90;;;10.70;99.90;;;;;;5072772;28;20477;-69
2022/04/06 02:05:47;;;;;;;6.07;3.87;;;10.70;99.90;;;;;;5072837;28;20461;-69
2022/04/06 02:08:14;;;;;;;8.70;4.23;;;10.70;99.90;;;;;;5072838;28;20456;-70
2022/04/06 02:10:41;;;;;;;10.87;4.40;;;10.70;99.90;;;;;;5072319;28;20444;-69
2022/04/06 02:13:09;;;;;;;7.40;3.90;;;10.60;99.90;;;;;;5072660;28;20456;-68
2022/04/06 02:15:37;;;;;;;8.17;3.13;;;10.60;99.90;;;;;;5072687;28;20467;-70
2022/04/06 02:18:05;;;;;;;5.10;3.77;;;10.70;99.90;;;;;;5072624;28;20460;-70
2022/04/06 02:20:32;;;;;;;8.80;3.83;;;10.60;99.90;;;;;;5072148;28;20997;-70
2022/04/06 02:22:58;;;;;;;6.93;4.23;;;10.60;99.90;;;;;;5072612;28;20444;-69
2022/04/06 02:25:26;;;;;;;7.00;4.17;;;10.70;99.90;;;;;;5074681;28;20866;-70
2022/04/06 02:27:54;;;;;;;7.83;4.80;;;10.70;99.90;;;;;;5075760;28;20841;-70
2022/04/06 02:30:23;;;;;;;10.80;3.40;;;10.70;99.90;;;;;;5076206;28;20523;-68
2022/04/06 02:32:50;;;;;;;9.57;3.87;;;10.60;99.90;;;;;;5076008;28;20491;-68
2022/04/06 02:35:17;;;;;;;6.17;3.50;;;10.60;99.90;;;;;;5076082;28;20470;-69
2022/04/06 02:37:44;;;;;;;9.50;3.83;;;10.60;99.90;;;;;;5076016;28;20451;-70
2022/04/06 02:40:13;;;;;;;4.70;3.87;;;10.70;99.90;;;;;;5075917;28;20451;-70
2022/04/06 02:42:40;;;;;;;5.30;3.53;;;10.60;99.90;;;;;;5075856;28;20468;-68
2022/04/06 02:45:07;;;;;;;5.73;4.10;;;10.60;99.90;;;;;;5075547;28;20822;-69
2022/04/06 02:47:36;;;;;;;4.13;3.30;;;10.60;99.90;;;;;;5075822;28;20455;-69
2022/04/06 02:50:03;;;;;;;9.53;4.80;;;10.60;99.90;;;;;;5076024;28;20448;-69
2022/04/06 02:52:30;;;;;;;5.80;4.03;;;10.60;99.90;;;;;;5075703;28;20890;-70
2022/04/06 02:54:57;;;;;;;9.40;4.73;;;10.60;99.90;;;;;;5076147;28;20453;-70
2022/04/06 02:57:25;;;;;;;6.87;3.93;;;10.50;99.90;;;;;;5075450;28;20814;-70
2022/04/06 02:59:52;;;;;;;11.83;4.33;;;10.50;99.90;;;;;;5076821;28;20834;-69
2022/04/06 03:02:19;;;;;;;7.27;4.30;;;10.50;99.90;;;;;;5075422;28;20992;-69
2022/04/06 03:04:47;;;;;;;13.27;4.07;;;10.50;99.90;;;;;;5075643;28;20447;-70
2022/04/06 03:07:18;;;;;;;12.93;4.57;;;10.50;99.90;;;;;;5075392;28;20448;-70
2022/04/06 03:09:45;;;;;;;7.90;4.90;;;10.50;99.90;;;;;;5075610;28;20433;-70
2022/04/06 03:12:11;;;;;;;10.23;4.47;;;10.50;99.90;;;;;;5074775;28;20484;-68
2022/04/06 03:14:38;;;;;;;8.67;4.77;;;10.60;99.90;;;;;;5075135;28;20456;-68
2022/04/06 03:17:06;;;;;;;10.23;4.80;;;10.50;99.90;;;;;;5075000;28;20441;-70
2022/04/06 03:19:32;;;;;;;13.67;4.90;;;10.50;99.90;;;;;;5074490;28;20962;-70
2022/04/06 03:22:00;;;;;;;11.03;4.50;;;10.50;99.90;;;;;;5075157;28;20469;-68
2022/04/06 03:24:27;;;;;;;9.60;5.07;;;10.50;99.90;;;;;;5075098;28;20449;-70
2022/04/06 03:26:54;;;;;;;13.97;5.67;;;10.50;99.90;;;;;;5075150;28;20456;-70
2022/04/06 03:29:21;;;;;;;9.67;4.77;;;10.50;99.90;;;;;;5075108;28;20464;-70
2022/04/06 03:31:48;;;;;;;12.57;4.90;;;10.40;99.90;;;;;;5075062;28;20499;-68
2022/04/06 03:34:15;;;;;;;7.03;4.77;;;10.50;99.90;;;;;;5074611;28;21027;-69
2022/04/06 03:36:42;;;;;;;12.50;5.60;;;10.50;99.90;;;;;;5073674;28;20457;-69
2022/04/06 03:39:10;;;;;;;13.20;5.17;;;10.50;99.90;;;;;;5074657;28;20943;-69
2022/04/06 03:41:37;;;;;;;7.30;3.80;;;10.50;99.90;;;;;;5074845;28;20564;-70
2022/04/06 03:44:04;;;;;;;9.83;4.30;;;10.50;99.90;;;;;;5074810;28;20460;-68
2022/04/06 03:46:31;;;;;;;12.50;5.03;;;10.50;99.90;;;;;;5074793;28;20852;-70
2022/04/06 03:48:58;;;;;;;10.40;5.20;;;10.50;99.90;;;;;;5074695;28;20444;-70
2022/04/06 03:51:25;;;;;;;5.87;4.40;;;10.50;99.90;;;;;;5074459;28;20472;-68
2022/04/06 03:53:51;;;;;;;11.60;4.30;;;10.50;99.90;;;;;;5074222;28;20945;-70
2022/04/06 03:56:19;;;;;;;10.23;4.10;;;10.50;99.90;;;;;;5074571;28;20452;-70
2022/04/06 03:58:46;;;;;;;8.80;4.30;;;10.40;99.90;;;;;;5074178;28;20932;-70
2022/04/06 04:01:13;;;;;;;7.67;3.73;;;10.40;99.90;;;;;;5073955;28;21007;-69
2022/04/06 04:03:40;;;;;;;8.33;3.60;;;10.50;99.90;;;;;;5074450;28;20456;-70
2022/04/06 04:06:07;;;;;;;6.50;4.77;;;10.50;99.90;;;;;;5074341;28;20472;-69
2022/04/06 04:08:33;;;;;;;7.57;3.73;;;10.50;99.90;;;;;;5074221;28;20440;-70
2022/04/06 04:11:00;;;;;;;7.30;3.80;;;10.40;99.90;;;;;;5073829;28;21005;-68
2022/04/06 04:13:28;;;;;;;12.47;4.10;;;10.40;99.90;;;;;;5074121;28;20480;-68
2022/04/06 04:15:55;;;;;;;6.20;3.70;;;10.50;99.90;;;;;;5074334;28;20468;-70
2022/04/06 04:18:22;;;;;;;6.87;4.00;;;10.50;99.90;;;;;;5073809;28;20817;-69
2022/04/06 04:20:49;;;;;;;11.83;4.00;;;10.40;99.90;;;;;;5073754;28;20991;-69
2022/04/06 04:23:16;;;;;;;10.57;4.37;;;10.40;99.90;;;;;;5073906;28;20444;-69
2022/04/06 04:25:43;;;;;;;14.97;5.10;;;10.40;99.90;;;;;;5073967;28;20441;-69
2022/04/06 04:28:10;;;;;;;7.90;4.13;;;10.50;99.90;;;;;;5073882;28;20452;-69
2022/04/06 04:30:38;;;;;;;9.40;4.30;;;10.40;99.90;;;;;;5073417;28;20457;-69
2022/04/06 04:33:05;;;;;;;7.03;3.83;;;10.40;99.90;;;;;;5074084;28;20473;-69
2022/04/06 04:35:32;;;;;;;9.60;4.57;;;10.50;99.90;;;;;;5073871;28;20452;-69
2022/04/06 04:37:58;;;;;;;8.67;4.37;;;10.40;99.90;;;;;;5073701;28;20456;-69
2022/04/06 04:40:25;;;;;;;10.33;4.60;;;10.40;99.90;;;;;;5073597;28;20448;-69
2022/04/06 04:42:53;;;;;;;10.17;5.50;;;10.40;99.90;;;;;;5073787;28;20449;-68
2022/04/06 04:45:19;;;;;;;10.80;4.90;;;10.40;99.90;;;;;;5073829;28;20448;-69
2022/04/06 04:47:47;;;;;;;13.90;6.03;;;10.40;99.90;;;;;;5073752;28;20453;-70
2022/04/06 04:50:15;;;;;;;9.50;4.90;;;10.40;99.90;;;;;;5073617;28;20471;-70
2022/04/06 04:52:41;;;;;;;7.60;4.57;;;10.40;99.90;;;;;;5072830;28;20860;-69
2022/04/06 04:55:09;;;;;;;9.00;4.63;;;10.40;99.90;;;;;;5073435;28;20444;-69
2022/04/06 04:57:36;;;;;;;10.67;6.20;;;10.50;99.90;;;;;;5073440;28;20460;-69
2022/04/06 05:00:04;;;;;;;10.67;5.60;;;10.40;99.90;;;;;;5073207;28;20951;-69
2022/04/06 05:02:31;;;;;;;14.17;5.10;;;10.40;99.90;;;;;;5073448;28;20465;-69
2022/04/06 05:04:59;;;;;;;5.60;4.70;;;10.40;99.90;;;;;;5073485;28;20448;-70
2022/04/06 05:07:25;;;;;;;14.30;5.30;;;10.40;99.90;;;;;;5073838;28;20448;-69
2022/04/06 05:09:52;;;;;;;8.13;4.90;;;10.40;99.90;;;;;;5073419;28;20484;-70
2022/04/06 05:12:19;;;;;;;8.23;5.43;;;10.40;99.90;;;;;;5073050;28;20495;-71
2022/04/06 05:14:46;;;;;;;16.30;5.10;;;10.40;99.90;;;;;;5073500;28;20448;-71
2022/04/06 05:17:13;;;;;;;7.20;5.13;;;10.50;99.90;;;;;;5073581;28;20452;-69
2022/04/06 05:19:40;;;;;;;7.80;4.07;;;10.40;99.90;;;;;;5073179;28;20539;-70
2022/04/06 05:22:08;;;;;;;9.47;4.27;;;10.40;99.90;;;;;;5073481;28;20460;-70
2022/04/06 05:24:34;;;;;;;8.73;4.70;;;10.40;99.90;;;;;;5073395;28;20457;-70
2022/04/06 05:27:03;;;;;;;8.80;5.03;;;10.40;99.90;;;;;;5073429;28;20810;-71
2022/04/06 05:29:30;;;;;;;7.30;3.97;;;10.40;99.90;;;;;;5073222;28;20495;-70
2022/04/06 05:31:57;;;;;;;9.00;4.00;;;10.50;99.90;;;;;;5072996;28;20472;-71
2022/04/06 05:34:24;;;;;;;8.17;3.30;;;10.50;99.90;;;;;;5073016;28;20908;-71
2022/04/06 05:36:50;;;;;;;7.37;3.43;;;10.50;99.90;;;;;;5073270;28;20452;-69
2022/04/06 05:39:19;;;;;;;8.43;4.20;;;10.50;99.90;;;;;;5073153;28;20444;-68
2022/04/06 05:41:45;;;;;;;9.30;3.73;;;10.50;99.90;;;;;;5072724;28;20806;-69
2022/04/06 05:44:12;;;;;;;6.90;3.40;;;10.50;99.90;;;;;;5073142;28;20460;-68
2022/04/06 05:46:39;;;;;;;9.40;3.33;;;10.50;99.90;;;;;;5073069;28;20449;-68
2022/04/06 05:49:06;;;;;;;7.93;3.03;;;10.60;99.90;;;;;;5073053;28;20448;-69
2022/04/06 05:51:34;;;;;;;7.77;2.50;;;10.60;99.90;;;;;;5073830;28;20464;-69
2022/04/06 05:54:02;;;;;;;8.97;2.87;;;10.60;99.90;;;;;;5072864;28;20563;-68
2022/04/06 05:56:30;;;;;;;5.13;2.63;;;10.60;99.90;;;;;;5072982;28;20457;-68
2022/04/06 05:58:57;;;;;;;7.30;3.53;;;10.60;99.90;;;;;;5072627;28;20448;-68
2022/04/06 06:01:24;;;;;;;8.97;4.00;;;10.50;99.90;;;;;;5076636;28;20811;-69
2022/04/06 06:03:51;;;;;;;9.80;3.60;;;10.60;99.90;;;;;;5076660;28;20437;-69
2022/04/06 06:06:18;;;;;;;5.37;2.90;;;10.60;99.90;;;;;;5076815;28;20448;-69
2022/04/06 06:08:44;;;;;;;6.87;3.10;;;10.60;99.90;;;;;;5076546;28;20471;-68
2022/04/06 06:11:12;;;;;;;7.23;3.10;;;10.50;99.90;;;;;;5076415;28;20483;-68
2022/04/06 06:13:40;;;;;;;5.40;2.70;;;10.50;99.90;;;;;;5076464;28;20476;-68
2022/04/06 06:16:06;;;;;;;8.73;3.93;;;10.50;99.90;;;;;;5076568;28;20452;-69
2022/04/06 06:18:33;;;;;;;12.00;3.10;;;10.50;99.90;;;;;;5075943;28;20970;-70
2022/04/06 06:21:01;;;;;;;8.90;3.20;;;10.50;99.90;;;;;;5076334;28;20469;-69
2022/04/06 06:23:27;;;;;;;6.60;2.93;;;10.60;99.90;;;;;;5076190;28;20444;-68
2022/04/06 06:25:54;;;;;;;8.37;3.27;;;10.60;99.90;;;;;;5076239;28;20444;-69
2022/04/06 06:28:21;;;;;;;7.00;3.50;;;10.50;99.90;;;;;;5076252;28;20798;-69
2022/04/06 06:30:50;;;;;;;7.23;2.77;;;10.50;99.90;;;;;;5076149;28;20463;-68
2022/04/06 06:33:17;;;;;;;9.17;3.53;;;10.60;99.90;;;;;;5076141;28;20480;-69
2022/04/06 06:35:45;;;;;;;6.07;3.20;;;10.60;99.90;;;;;;5076088;28;20448;-69
2022/04/06 06:38:12;;;;;;;9.50;2.83;;;10.60;99.90;;;;;;5076166;28;20459;-69
2022/04/06 06:40:40;;;;;;;5.83;2.80;;;10.60;99.90;;;;;;5075601;28;20452;-69
2022/04/06 06:43:07;;;;;;;10.23;3.00;;;10.60;99.90;;;;;;5075720;28;20539;-70
2022/04/06 06:45:34;;;;;;;5.50;2.53;;;10.70;99.90;;;;;;5076097;28;20448;-69
2022/04/06 06:48:02;;;;;;;6.17;2.37;;;10.70;99.90;;;;;;5075901;28;20464;-69
2022/04/06 06:50:29;;;;;;;6.93;3.43;;;10.60;99.90;;;;;;5075816;28;20452;-69
2022/04/06 06:52:55;;;;;;;6.63;3.13;;;10.60;99.90;;;;;;5075715;28;20489;-69
2022/04/06 06:55:22;;;;;;;8.03;3.00;;;10.60;99.90;;;;;;5075564;28;20451;-69
2022/04/06 06:57:49;;;;;;;6.80;2.67;;;10.60;99.90;;;;;;5075795;28;20452;-69
2022/04/06 07:00:17;;;;;;;4.73;2.97;;;10.60;99.90;;;;;;5075823;28;20469;-70
2022/04/06 07:02:44;;;;;;;7.60;2.97;;;10.60;99.90;;;;;;5075315;28;20834;-70
2022/04/06 07:05:12;;;;;;;7.77;3.50;;;10.60;99.90;;;;;;5075679;28;20872;-70
2022/04/06 07:07:52;;;;;;;5.33;3.70;;;10.50;99.90;;;;;;5075531;28;20445;-70
2022/04/06 07:10:20;;;;;;;3.97;2.80;;;10.50;99.90;;;;;;5075532;28;20433;-69
2022/04/06 07:12:47;;;;;;;10.17;3.30;;;10.60;99.90;;;;;;5075598;28;20496;-69
2022/04/06 07:15:14;;;;;;;8.73;2.97;;;10.50;99.90;;;;;;5075280;28;20456;-70
2022/04/06 07:17:41;;;;;;;6.17;3.13;;;10.60;99.90;;;;;;5075675;28;20448;-70
2022/04/06 07:20:08;;;;;;;8.60;4.20;;;10.60;99.90;;;;;;5075063;28;20457;-70
2022/04/06 07:22:37;;;;;;;5.83;2.70;;;10.60;99.90;;;;;;5075258;28;20464;-69
2022/04/06 07:25:04;;;;;;;6.60;3.17;;;10.60;99.90;;;;;;5075353;28;20448;-70
2022/04/06 07:27:35;;;;;;;7.13;3.07;;;10.60;99.90;;;;;;5075313;28;20440;-69
2022/04/06 07:30:02;;;;;;;5.63;2.50;;;10.60;99.90;;;;;;5075336;28;20429;-69
2022/04/06 07:32:29;;;;;;;45.27;3.77;;;10.50;99.90;;;;;;5074703;28;20475;-69
2022/04/06 07:34:56;;;;;;;3.93;2.73;;;10.50;99.90;;;;;;5074736;28;20854;-69
2022/04/06 07:37:23;;;;;;;9.03;3.03;;;10.50;99.90;;;;;;5075066;28;20448;-70
2022/04/06 07:39:51;;;;;;;7.80;2.67;;;10.40;99.90;;;;;;5075104;28;20441;-70
2022/04/06 07:42:18;;;;;;;5.00;2.60;;;10.40;99.90;;;;;;5074910;28;20472;-69
2022/04/06 07:44:47;;;;;;;4.93;2.63;;;10.40;99.90;;;;;;5074552;28;20464;-69
2022/04/06 07:47:14;;;;;;;5.53;2.70;;;10.40;99.90;;;;;;5074838;28;20488;-69
2022/04/06 07:49:40;;;;;;;5.40;1.90;;;10.50;99.90;;;;;;5074772;28;20441;-70
2022/04/06 07:52:07;;;;;;;5.00;2.53;;;10.50;99.90;;;;;;5074808;28;20495;-69
2022/04/06 07:54:34;;;;;;;3.60;2.77;;;10.60;99.90;;;;;;5074608;28;20857;-69
2022/04/06 07:57:03;;;;;;;5.93;2.70;;;10.60;99.90;;;;;;5074458;28;20448;-69
2022/04/06 07:59:30;;;;;;;7.97;2.30;;;10.60;99.90;;;;;;5074286;28;20480;-69
2022/04/06 08:01:57;;;;;;;8.77;2.03;;;10.70;99.90;;;;;;5074491;28;20480;-70
2022/04/06 08:04:24;;;;;;;5.63;2.27;;;10.80;99.90;;;;;;5074393;28;20964;-70
2022/04/06 08:06:50;;;;;;;4.80;2.23;;;10.90;99.90;;;;;;5074392;28;20455;-69
2022/04/06 08:09:17;;;;;;;4.80;2.73;;;10.90;99.30;;;;;;5074355;28;20456;-70
2022/04/06 08:11:44;;;;;;;4.13;2.10;;;10.90;99.00;;;;;;5074365;28;20518;-70
2022/04/06 08:14:12;;;;;;;3.27;2.00;;;10.90;99.30;;;;;;5074210;28;20484;-70
2022/04/06 08:16:39;;;;;;;3.57;1.63;;;10.90;98.30;;;;;;5073966;28;20952;-70
2022/04/06 08:19:06;;;;;;;12.37;1.80;;;10.90;97.80;;;;;;5073725;28;20465;-69
2022/04/06 08:21:33;;;;;;;5.60;1.60;;;10.90;97.80;;;;;;5073431;28;21030;-69
2022/04/06 08:24:00;;;;;;;7.67;2.20;;;10.90;97.80;;;;;;5073924;28;20444;-70
2022/04/06 08:26:27;;;;;;;8.93;2.70;;;10.90;97.70;;;;;;5073824;28;20445;-70
2022/04/06 08:28:55;;;;;;;6.10;2.70;;;10.90;97.60;;;;;;5074191;28;20883;-69
2022/04/06 08:31:23;;;;;;;3.00;1.80;;;10.90;97.90;;;;;;5073568;28;20865;-69
2022/04/06 08:33:50;;;;;;;5.53;2.17;;;10.90;97.80;;;;;;5073657;28;20995;-70
2022/04/06 08:36:17;;;;;;;4.77;1.60;;;10.90;97.50;;;;;;5073518;28;20487;-70
2022/04/06 08:38:44;;;;;;;4.43;2.30;;;11.00;97.60;;;;;;5073901;28;20488;-69
2022/04/06 08:41:12;;;;;;;7.07;2.30;;;11.00;97.30;;;;;;5073818;28;20472;-69
2022/04/06 08:43:42;;;;;;;8.60;2.10;;;11.00;97.20;;;;;;5073519;28;20450;-69
2022/04/06 08:46:10;;;;;;;9.97;2.17;;;11.00;96.80;;;;;;5074095;28;20425;-70
2022/04/06 08:48:39;;;;;;;5.10;1.90;;;11.20;96.90;;;;;;5073760;28;20471;-70
2022/04/06 08:51:09;;;;;;;13.40;2.30;;;11.30;96.60;;;;;;5074206;28;20826;-69
2022/04/06 08:53:40;;;;;;;4.67;1.97;;;11.50;95.70;;;;;;5073951;28;20481;-70
2022/04/06 08:56:08;;;;;;;7.97;1.30;;;11.60;95.10;;;;;;5074192;28;20453;-70
2022/04/06 08:58:35;;;;;;;6.80;2.87;;;11.60;95.40;;;;;;5074083;28;20452;-70
2022/04/06 09:01:02;;;;;;;3.87;1.30;;;11.70;95.40;;;;;;5073528;28;21035;-69
2022/04/06 09:03:28;;;;;;;8.80;1.97;;;11.90;95.10;;;;;;5073678;28;20444;-69
2022/04/06 09:06:05;;;;;;;6.13;1.47;;;12.10;94.90;;;;;;5073239;28;20455;-69
2022/04/06 09:08:36;;;;;;;3.20;1.50;;;12.20;94.50;;;;;;5073640;28;20424;-70
2022/04/06 09:11:07;;;;;;;3.90;1.60;;;12.20;94.00;;;;;;5073550;28;20472;-69
2022/04/06 09:13:34;;;;;;;5.03;1.60;;;12.30;93.80;;;;;;5073510;28;20911;-69
2022/04/06 09:16:02;;;;;;;15.27;3.67;;;12.30;93.50;;;;;;5073430;28;20441;-70
2022/04/06 09:18:34;;;;;;;6.30;1.50;;;12.20;93.40;;;;;;5073376;28;20471;-70
2022/04/06 09:21:03;;;;;;;3.00;1.20;;;12.30;93.10;;;;;;5073518;28;20488;-70
2022/04/06 09:23:31;;;;;;;3.50;1.80;;;12.20;93.20;;;;;;5073366;28;20441;-69
2022/04/06 09:26:03;;;;;;;5.83;1.87;;;12.20;93.40;;;;;;5073331;28;20483;-69
2022/04/06 09:28:30;;;;;;;3.33;1.23;;;12.30;93.60;;;;;;5073242;28;20429;-69
2022/04/06 09:30:57;;;;;;;7.93;2.23;;;12.40;93.20;;;;;;5073137;28;20474;-70
2022/04/06 09:33:27;;;;;;;7.30;1.67;;;12.40;93.10;;;;;;5073990;28;20484;-70
2022/04/06 09:35:55;;;;;;;5.90;1.53;;;12.20;91.90;;;;;;5077411;28;20843;-70
2022/04/06 09:38:25;;;;;;;8.40;1.60;;;12.10;92.70;;;;;;5077210;28;20495;-70
2022/04/06 09:41:02;;;;;;;9.87;1.63;;;12.00;92.90;;;;;;5077305;28;20479;-70
2022/04/06 09:43:30;;;;;;;9.87;1.83;;;12.00;93.10;;;;;;5077401;28;20432;-69
2022/04/06 09:49:01;;;;;;;4.83;1.90;;;12.00;92.90;;;;;;5076908;28;20464;-69
2022/04/06 09:51:29;;;;;;;4.80;1.50;;;11.80;93.10;;;;;;5076998;28;20468;-69
2022/04/06 09:53:57;;;;;;;5.20;1.50;;;11.80;93.60;;;;;;5076984;28;20480;-69
2022/04/06 09:56:24;;;;;;;5.93;1.70;;;11.80;93.60;;;;;;5076982;28;20440;-70
2022/04/06 09:58:51;;;;;;;16.63;3.90;;;11.80;93.70;;;;;;5076823;28;20448;-70
2022/04/06 10:01:18;;;;;;;6.87;1.93;;;11.80;94.10;;;;;;5076810;28;20530;-70
2022/04/06 10:03:50;;;;;;;7.60;2.00;;;11.90;94.20;;;;;;5076753;28;20871;-69
2022/04/06 10:06:18;;;;;;;5.77;1.90;;;11.90;94.20;;;;;;5076782;28;20472;-70
2022/04/06 10:08:45;;;;;;;3.73;1.90;;;12.00;94.10;;;;;;5076281;28;20948;-70
2022/04/06 10:11:16;;;;;;;4.00;1.67;;;12.00;94.10;;;;;;5076211;28;20471;-69
2022/04/06 10:13:44;;;;;;;4.30;2.20;;;12.00;94.10;;;;;;5076294;28;20461;-69
2022/04/06 10:16:13;;;;;;;7.07;1.67;;;12.00;94.80;;;;;;5076419;28;20448;-69
2022/04/06 10:18:42;;;;;;;4.43;1.40;;;12.10;94.50;;;;;;5076279;28;20467;-70
2022/04/06 10:21:13;;;;;;;3.13;1.40;;;12.10;94.30;;;;;;5076408;28;20468;-70
2022/04/06 10:23:48;;;;;;;7.50;1.90;;;12.10;94.50;;;;;;5076550;28;20427;-69
2022/04/06 10:26:27;;;;;;;7.57;2.17;;;12.10;94.70;;;;;;5076429;28;20455;-69
2022/04/06 10:28:54;;;;;;;5.27;1.23;;;12.10;94.60;;;;;;5076419;28;20435;-70
2022/04/06 10:31:23;;;;;;;4.20;1.60;;;12.10;95.10;;;;;;5076208;28;20472;-69
2022/04/06 10:33:51;;;;;;;4.40;1.20;;;12.10;94.30;;;;;;5076364;28;20511;-69
2022/04/06 10:36:19;;;;;;;4.20;1.50;;;12.10;94.60;;;;;;5076042;28;20970;-69
2022/04/06 10:39:12;;;;;;;4.60;1.60;;;12.20;94.90;;;;;;5076158;28;20440;-70
2022/04/06 10:42:00;;;;;;;9.20;2.27;;;12.20;94.60;;;;;;5075976;28;20472;-70
2022/04/06 10:44:40;;;;;;;8.37;1.50;;;12.20;95.50;;;;;;5075535;28;20455;-70
2022/04/06 10:47:08;;;;;;;7.17;1.63;;;12.20;95.00;;;;;;5075579;28;20444;-70
2022/04/06 10:49:35;;;;;;;4.43;1.87;;;12.40;95.30;;;;;;5076012;28;20502;-70
2022/04/06 10:52:22;;;;;;;5.77;1.77;;;12.40;94.60;;;;;;5075844;28;20468;-69
2022/04/06 10:54:50;;;;;;;4.50;2.40;;;12.60;95.10;;;;;;5075725;28;20500;-69
2022/04/06 10:57:18;;;;;;;5.60;1.30;;;12.80;94.80;;;;;;5075646;28;20456;-70
2022/04/06 11:00:11;;;;;;;3.00;1.60;;;13.20;94.40;;;;;;5075702;28;20449;-69
2022/04/06 11:02:47;;;;;;;1.53;1.40;;;13.50;93.50;;;;;;5075394;28;20870;-69
2022/04/06 11:05:43;;;;;;;7.00;1.43;;;13.70;93.20;;;;;;5075529;28;20482;-70
2022/04/06 11:11:35;;;;;;;5.80;1.47;;;14.10;92.50;;;;;;5075456;28;20459;-70
2022/04/06 11:14:03;;;;;;;11.87;2.20;;;14.10;91.40;;;;;;5074948;28;20526;-69
2022/04/06 11:16:48;;;;;;;1.80;1.50;;;13.80;91.30;;;;;;5075285;28;20448;-70
2022/04/06 11:19:16;;;;;;;5.40;2.10;;;13.70;91.70;;;;;;5075062;28;20468;-70
2022/04/06 11:21:48;;;;;;;4.17;2.23;;;13.40;91.40;;;;;;5074710;28;20473;-70
2022/04/06 11:24:23;;;;;;;1.60;1.30;;;13.20;92.20;;;;;;5075186;28;20452;-70
2022/04/06 11:26:50;;;;;;;6.40;1.77;;;13.20;93.20;;;;;;5075002;28;20441;-70
2022/04/06 11:29:19;;;;;;;3.00;1.57;;;13.10;92.90;;;;;;5075269;28;20453;-69
2022/04/06 11:32:00;;;;;;;2.83;2.60;;;13.10;92.70;;;;;;5074887;28;20469;-69
2022/04/06 11:34:34;;;;;;;4.70;1.77;;;12.90;93.00;;;;;;5075548;28;20484;-69
2022/04/06 11:37:01;;;;;;;7.23;1.90;;;12.80;93.30;;;;;;5075172;28;20444;-69
2022/04/06 11:39:30;;;;;;;6.43;1.57;;;12.70;93.80;;;;;;5074792;28;20452;-69
2022/04/06 11:41:58;;;;;;;6.90;1.53;;;12.60;94.20;;;;;;5074602;28;20472;-69
2022/04/06 11:44:28;;;;;;;5.13;2.00;;;12.60;93.80;;;;;;5074783;28;20459;-69
2022/04/06 11:46:55;;;;;;;3.30;1.50;;;12.50;94.10;;;;;;5075849;28;20524;-69
2022/04/06 11:49:24;;;;;;;4.40;1.40;;;12.50;94.10;;;;;;5074731;28;20444;-70
2022/04/06 11:51:54;;;;;;;4.87;1.90;;;12.40;94.40;;;;;;5073049;28;21032;-69
2022/04/06 11:54:21;;;;;;;4.30;2.20;;;12.30;94.50;;;;;;5074482;28;20896;-69
2022/04/06 11:56:52;;;;;;;6.83;2.13;;;12.40;95.20;;;;;;5073831;28;20432;-70
2022/04/06 11:59:19;;;;;;;2.80;1.30;;;12.40;94.30;;;;;;5074546;28;20444;-70
2022/04/06 12:01:48;;;;;;;5.80;2.17;;;12.30;94.30;;;;;;5074271;28;20475;-69
2022/04/06 12:04:16;;;;;;;5.73;1.33;;;12.30;94.70;;;;;;5074504;28;20824;-67
2022/04/06 12:06:43;;;;;;;3.03;1.47;;;12.50;94.60;;;;;;5074538;28;20802;-67
2022/04/06 12:09:10;;;;;;;3.17;1.30;;;12.50;94.60;;;;;;5074616;28;20452;-67
2022/04/06 12:11:38;;;;;;;4.70;1.50;;;12.60;94.70;;;;;;5074387;28;20484;-67
2022/04/06 12:14:05;;;;;;;6.47;1.70;;;12.70;94.40;;;;;;5074460;28;20459;-67
2022/04/06 12:16:32;;;;;;;5.63;1.93;;;12.60;93.90;;;;;;5074231;28;20440;-67
2022/04/06 12:19:02;;;;;;;6.77;2.27;;;12.50;94.30;;;;;;5074131;28;20457;-67
2022/04/06 12:21:30;;;;;;;5.87;1.70;;;12.60;94.40;;;;;;5074334;28;20468;-67
2022/04/06 12:23:57;;;;;;;6.27;1.23;;;12.60;94.20;;;;;;5074498;28;20476;-67
2022/04/06 12:26:25;;;;;;;4.93;1.60;;;12.60;94.00;;;;;;5074039;28;20445;-67
2022/04/06 12:28:59;;;;;;;2.20;1.60;;;12.60;94.40;;;;;;5074318;28;20791;-67
2022/04/06 12:31:34;;;;;;;4.73;1.70;;;12.60;94.70;;;;;;5073860;28;20500;-67
2022/04/06 12:34:02;;;;;;;2.80;1.70;;;12.60;94.10;;;;;;5073926;28;20973;-67
2022/04/06 12:36:31;;;;;;;3.23;1.73;;;12.60;93.70;;;;;;5073873;28;20444;-67
2022/04/06 12:39:00;;;;;;;2.30;1.30;;;12.70;93.60;;;;;;5074098;28;20448;-67
2022/04/06 12:41:29;;;;;;;3.33;1.50;;;12.70;93.60;;;;;;5073580;28;20476;-67
2022/04/06 12:43:56;;;;;;;3.83;1.40;;;12.80;93.50;;;;;;5073543;28;20931;-67
2022/04/06 12:46:40;;;;;;;3.97;1.77;;;12.90;94.20;;;;;;5073751;28;20453;-67
2022/04/06 12:49:25;;;;;;;3.47;1.57;;;13.10;94.60;;;;;;5073956;28;20440;-67
2022/04/06 12:52:12;;;;;;;1.77;1.30;;;13.10;93.80;;;;;;5074012;28;20989;-67
2022/04/06 12:54:40;;;;;;;2.37;1.50;;;13.20;93.30;;;;;;5073451;28;21035;-67
2022/04/06 12:57:10;;;;;;;2.60;1.73;;;13.30;93.20;;;;;;5073628;28;20539;-67
2022/04/06 12:59:39;;;;;;;4.87;2.37;;;13.30;92.60;;;;;;5073392;28;20908;-67
2022/04/06 13:02:06;;;;;;;3.10;2.00;;;13.40;92.70;;;;;;5073542;28;20479;-67